createdAt,value
2019-02-05T00:04:27.125Z,24.53
2019-02-05T00:07:15.911Z,14.77
2019-02-05T00:10:27.346Z,12.43
2019-02-05T00:13:16.133Z,10.57
2019-02-05T00:16:05.010Z,14.93
2019-02-05T00:18:53.795Z,12.20
2019-02-05T00:21:42.679Z,16.30
2019-02-05T00:24:31.470Z,25.55
2019-02-05T00:27:22.000Z,15.83
2019-02-05T00:30:31.695Z,13.70
2019-02-05T00:33:27.260Z,13.87
2019-02-05T00:36:16.047Z,14.93
2019-02-05T00:39:25.779Z,16.12
2019-02-05T00:42:14.845Z,14.50
2019-02-05T00:48:19.659Z,15.60
2019-02-05T00:51:08.538Z,13.43
2019-02-05T00:53:57.331Z,15.97
2019-02-05T00:56:46.139Z,12.70
2019-02-05T00:59:34.936Z,14.90
2019-02-05T01:02:16.332Z,18.52
2019-02-05T01:05:26.058Z,11.87
2019-02-05T01:08:14.874Z,14.38
2019-02-05T01:11:03.697Z,13.87
2019-02-05T01:13:52.518Z,12.60
2019-02-05T01:16:41.576Z,14.60
2019-02-05T01:19:30.395Z,12.30
2019-02-05T01:22:19.176Z,16.57
2019-02-05T01:25:28.898Z,14.87
2019-02-05T01:28:17.688Z,14.63
2019-02-05T01:31:06.564Z,17.33
2019-02-05T01:33:55.498Z,9.87
2019-02-05T01:36:44.321Z,12.57
2019-02-05T01:39:33.103Z,11.97
2019-02-05T01:42:21.922Z,12.43
2019-02-05T01:45:31.921Z,17.60
2019-02-05T01:48:20.731Z,15.67
2019-02-05T01:51:09.540Z,15.10
2019-02-05T01:53:58.363Z,11.37
2019-02-05T01:56:48.861Z,17.02
2019-02-05T01:59:37.676Z,20.60
2019-02-05T02:02:19.228Z,16.60
2019-02-05T02:05:08.236Z,12.57
2019-02-05T02:07:57.086Z,13.87
2019-02-05T02:10:46.220Z,15.00
2019-02-05T02:13:35.287Z,14.70
2019-02-05T02:16:26.293Z,21.20
2019-02-05T02:19:15.092Z,16.40
2019-02-05T02:22:24.664Z,15.37
2019-02-05T02:25:13.936Z,16.37
2019-02-05T02:28:02.733Z,19.10
2019-02-05T02:30:51.522Z,13.47
2019-02-05T02:33:40.401Z,12.23
2019-02-05T02:36:29.195Z,14.43
2019-02-05T02:39:18.003Z,16.70
2019-02-05T02:42:06.804Z,23.18
2019-02-05T02:44:55.595Z,15.37
2019-02-05T02:47:44.410Z,14.50
2019-02-05T02:50:33.194Z,15.80
2019-02-05T02:53:22.021Z,15.27
2019-02-05T02:56:10.819Z,17.60
2019-02-05T02:58:59.630Z,18.57
2019-02-05T03:01:48.424Z,17.10
2019-02-05T03:04:31.505Z,15.72
2019-02-05T03:07:20.299Z,16.63
2019-02-05T03:10:29.321Z,18.70
2019-02-05T03:13:18.099Z,11.73
2019-02-05T03:16:07.075Z,19.53
2019-02-05T03:18:55.867Z,21.35
2019-02-05T03:21:44.669Z,15.27
2019-02-05T03:24:33.474Z,34.63
2019-02-05T03:27:22.274Z,12.93
2019-02-05T03:30:33.705Z,14.53
2019-02-05T03:33:22.534Z,13.93
2019-02-05T03:36:11.305Z,18.40
2019-02-05T03:39:00.201Z,12.37
2019-02-05T03:41:50.616Z,13.10
2019-02-05T03:44:39.439Z,20.63
2019-02-05T03:47:28.242Z,14.80
2019-02-05T03:50:17.045Z,18.45
2019-02-05T03:53:27.981Z,16.47
2019-02-05T03:56:55.461Z,16.83
2019-02-05T04:00:22.954Z,15.87
2019-02-05T04:03:09.167Z,17.20
2019-02-05T04:06:18.899Z,14.80
2019-02-05T04:09:28.616Z,30.80
2019-02-05T04:12:38.573Z,15.13
2019-02-05T04:16:06.074Z,15.00
2019-02-05T04:19:33.560Z,19.93
2019-02-05T04:22:43.302Z,17.70
2019-02-05T04:25:54.776Z,12.70
2019-02-05T04:29:22.261Z,19.50
2019-02-05T04:32:32.033Z,15.77
2019-02-05T04:35:41.776Z,15.85
2019-02-05T04:38:51.518Z,25.10
2019-02-05T04:42:02.928Z,15.93
2019-02-05T04:45:12.654Z,16.97
2019-02-05T04:48:43.542Z,17.95
2019-02-05T04:52:09.345Z,19.70
2019-02-05T04:55:19.050Z,21.10
2019-02-05T04:58:28.832Z,15.63
2019-02-05T05:01:41.517Z,14.23
2019-02-05T05:04:42.305Z,23.27
2019-02-05T05:07:52.071Z,20.90
2019-02-05T05:10:40.870Z,13.63
2019-02-05T05:13:29.678Z,14.07
2019-02-05T05:16:18.470Z,19.37
2019-02-05T05:19:07.279Z,17.00
2019-02-05T05:21:57.867Z,20.67
2019-02-05T05:24:46.845Z,21.60
2019-02-05T05:27:35.649Z,17.77
2019-02-05T05:30:24.509Z,14.00
2019-02-05T05:33:13.315Z,23.00
2019-02-05T05:36:02.132Z,18.10
2019-02-05T05:38:50.933Z,19.27
2019-02-05T05:41:41.471Z,18.05
2019-02-05T05:44:30.259Z,33.60
2019-02-05T05:47:19.070Z,22.42
2019-02-05T05:50:28.793Z,22.20
2019-02-05T05:53:17.607Z,18.00
2019-02-05T05:56:06.474Z,23.33
2019-02-05T05:58:57.023Z,17.60
2019-02-05T06:01:45.847Z,16.80
2019-02-05T06:04:25.615Z,29.35
2019-02-05T06:07:14.422Z,22.00
2019-02-05T06:13:31.883Z,17.30
2019-02-05T06:16:20.674Z,22.70
2019-02-05T06:19:09.476Z,18.30
2019-02-05T06:21:58.273Z,23.83
2019-02-05T06:24:47.083Z,18.73
2019-02-05T06:27:35.934Z,15.90
2019-02-05T06:30:24.743Z,19.67
2019-02-05T06:33:13.539Z,17.03
2019-02-05T06:36:02.353Z,16.37
2019-02-05T06:38:51.234Z,18.87
2019-02-05T06:41:41.816Z,16.80
2019-02-05T06:44:30.637Z,28.83
2019-02-05T06:47:19.541Z,20.33
2019-02-05T06:50:29.336Z,22.37
2019-02-05T06:53:18.379Z,18.13
2019-02-05T06:56:07.242Z,20.07
2019-02-05T06:58:56.057Z,18.45
2019-02-05T07:01:44.840Z,17.03
2019-02-05T07:04:26.805Z,28.15
2019-02-05T07:07:15.606Z,20.80
2019-02-05T07:10:25.312Z,16.07
2019-02-05T07:13:14.128Z,19.70
2019-02-05T07:16:02.933Z,18.20
2019-02-05T07:18:51.738Z,19.73
2019-02-05T07:21:40.577Z,20.55
2019-02-05T07:24:29.385Z,23.90
2019-02-05T07:27:18.532Z,21.90
2019-02-05T07:30:28.251Z,17.37
2019-02-05T07:33:17.044Z,21.53
2019-02-05T07:36:05.925Z,19.03
2019-02-05T07:38:54.710Z,14.68
2019-02-05T07:41:43.537Z,20.50
2019-02-05T07:44:32.328Z,35.65
2019-02-05T07:47:23.420Z,18.80
2019-02-05T07:50:30.994Z,19.12
2019-02-05T07:53:19.796Z,15.23
2019-02-05T07:56:08.656Z,15.60
2019-02-05T07:58:57.461Z,15.50
2019-02-05T08:01:46.250Z,17.90
2019-02-05T08:04:27.899Z,28.00
2019-02-05T08:07:16.689Z,38.13
2019-02-05T08:10:26.428Z,23.87
2019-02-05T08:13:15.311Z,23.27
2019-02-05T08:16:04.182Z,21.43
2019-02-05T08:18:53.079Z,26.63
2019-02-05T08:21:22.526Z,22.27
2019-02-05T08:24:11.341Z,24.37
2019-02-05T08:27:00.217Z,31.83
2019-02-05T08:29:49.029Z,25.23
2019-02-05T08:32:37.925Z,34.03
2019-02-05T08:35:26.789Z,16.50
2019-02-05T08:38:15.669Z,21.27
2019-02-05T08:41:06.176Z,17.27
2019-02-05T08:43:55.073Z,19.87
2019-02-05T08:46:43.878Z,19.40
2019-02-05T08:49:32.702Z,21.07
2019-02-05T08:52:21.516Z,19.50
2019-02-05T08:55:31.225Z,20.20
2019-02-05T08:58:30.337Z,20.97
2019-02-05T09:01:03.828Z,14.83
2019-02-05T09:03:52.632Z,19.55
2019-02-05T09:06:41.431Z,19.77
2019-02-05T09:09:30.239Z,12.93
2019-02-05T09:12:19.108Z,19.57
2019-02-05T09:15:29.786Z,16.90
2019-02-05T09:18:19.340Z,21.80
2019-02-05T09:21:08.150Z,16.10
2019-02-05T09:23:58.656Z,19.13
2019-02-05T09:26:47.479Z,19.10
2019-02-05T09:29:36.297Z,22.17
2019-02-05T09:32:25.097Z,19.07
2019-02-05T09:35:13.899Z,22.90
2019-02-05T09:38:02.725Z,18.70
2019-02-05T09:40:51.556Z,19.97
2019-02-05T09:43:40.444Z,23.10
2019-02-05T09:46:29.395Z,19.33
2019-02-05T09:49:18.195Z,19.00
2019-02-05T09:52:07.012Z,21.03
2019-02-05T09:54:55.801Z,14.93
2019-02-05T09:57:44.644Z,21.02
2019-02-05T10:00:54.369Z,20.67
2019-02-05T10:03:34.070Z,16.50
2019-02-05T10:06:22.885Z,21.90
2019-02-05T10:09:11.686Z,20.90
2019-02-05T10:12:00.503Z,18.20
2019-02-05T10:14:51.004Z,18.90
2019-02-05T10:17:39.812Z,20.13
2019-02-05T10:20:28.609Z,20.10
2019-02-05T10:23:17.490Z,22.60
2019-02-05T10:26:06.279Z,19.80
2019-02-05T10:28:55.089Z,21.93
2019-02-05T10:31:43.880Z,17.17
2019-02-05T10:34:34.514Z,36.53
2019-02-05T10:37:23.289Z,20.87
2019-02-05T10:40:33.011Z,22.25
2019-02-05T10:43:21.818Z,19.43
2019-02-05T10:46:10.610Z,21.37
2019-02-05T10:48:59.431Z,18.40
2019-02-05T10:51:48.258Z,20.80
2019-02-05T10:54:37.060Z,23.60
2019-02-05T10:57:25.844Z,22.50
2019-02-05T11:00:35.652Z,27.60
2019-02-05T11:03:18.620Z,21.23
2019-02-05T11:06:07.500Z,25.63
2019-02-05T11:08:56.450Z,20.43
2019-02-05T11:11:45.298Z,24.50
2019-02-05T11:14:34.158Z,37.73
2019-02-05T11:17:23.142Z,22.57
2019-02-05T11:20:32.848Z,26.13
2019-02-05T11:23:21.693Z,43.97
2019-02-05T11:26:10.501Z,28.35
2019-02-05T11:28:59.484Z,33.80
2019-02-05T11:31:48.316Z,27.62
2019-02-05T11:34:37.131Z,39.00
2019-02-05T11:37:25.959Z,19.87
2019-02-05T11:40:35.355Z,25.20
2019-02-05T11:43:24.144Z,24.27
2019-02-05T11:46:13.031Z,21.77
2019-02-05T11:49:01.825Z,23.70
2019-02-05T11:51:50.641Z,19.57
2019-02-05T11:54:39.468Z,23.93
2019-02-05T11:57:28.264Z,24.10
2019-02-05T12:00:57.039Z,20.40
2019-02-05T12:03:38.944Z,20.73
2019-02-05T12:06:27.765Z,31.33
2019-02-05T12:09:37.462Z,36.17
2019-02-05T12:12:06.996Z,20.87
2019-02-05T12:14:55.824Z,28.73
2019-02-05T12:17:44.618Z,36.85
2019-02-05T12:20:33.449Z,29.72
2019-02-05T12:23:24.097Z,34.87
2019-02-05T12:26:12.917Z,42.55
2019-02-05T12:29:01.719Z,39.20
2019-02-05T12:31:50.511Z,22.37
2019-02-05T12:34:39.330Z,20.90
2019-02-05T12:37:28.121Z,19.97
2019-02-05T12:40:36.262Z,18.87
2019-02-05T12:43:25.058Z,16.37
2019-02-05T12:46:13.920Z,24.97
2019-02-05T12:49:02.804Z,28.73
2019-02-05T12:51:51.592Z,27.83
2019-02-05T12:54:40.399Z,30.37
2019-02-05T12:57:29.316Z,30.97
2019-02-05T13:00:40.177Z,30.50
2019-02-05T13:03:22.002Z,25.40
2019-02-05T13:06:10.864Z,16.03
2019-02-05T13:08:59.675Z,20.33
2019-02-05T13:11:50.255Z,15.50
2019-02-05T13:14:39.069Z,25.10
2019-02-05T13:17:27.950Z,16.80
2019-02-05T13:20:37.659Z,19.30
2019-02-05T13:23:26.482Z,26.17
2019-02-05T13:26:15.338Z,33.50
2019-02-05T13:29:04.322Z,28.10
2019-02-05T13:31:53.121Z,22.80
2019-02-05T13:34:43.665Z,28.80
2019-02-05T13:37:32.471Z,26.20
2019-02-05T13:40:40.598Z,24.72
2019-02-05T13:43:29.390Z,18.47
2019-02-05T13:46:18.208Z,17.83
2019-02-05T13:49:07.063Z,27.13
2019-02-05T13:51:57.599Z,23.30
2019-02-05T13:54:46.406Z,22.62
2019-02-05T13:57:35.205Z,20.97
2019-02-05T14:01:02.699Z,21.50
2019-02-05T14:03:43.999Z,24.37
2019-02-05T14:06:32.789Z,19.47
2019-02-05T14:09:21.613Z,27.43
2019-02-05T14:12:10.406Z,27.33
2019-02-05T14:15:00.936Z,31.27
2019-02-05T14:17:49.729Z,21.83
2019-02-05T14:20:38.545Z,20.30
2019-02-05T14:23:27.366Z,18.67
2019-02-05T14:26:16.246Z,20.27
2019-02-05T14:29:05.100Z,17.97
2019-02-05T14:31:53.980Z,17.97
2019-02-05T14:34:42.771Z,18.57
2019-02-05T14:37:31.586Z,20.53
2019-02-05T14:40:43.124Z,17.60
2019-02-05T14:43:31.951Z,13.98
2019-02-05T14:46:20.764Z,25.32
2019-02-05T14:49:09.583Z,19.15
2019-02-05T14:51:58.378Z,18.87
2019-02-05T14:54:47.183Z,22.20
2019-02-05T14:57:35.993Z,35.27
2019-02-05T15:00:45.710Z,17.70
2019-02-05T15:03:27.421Z,19.98
2019-02-05T15:06:16.235Z,17.77
2019-02-05T15:12:34.206Z,20.80
2019-02-05T15:15:43.897Z,20.10
2019-02-05T15:18:32.714Z,17.50
2019-02-05T15:21:21.917Z,19.80
2019-02-05T15:24:10.712Z,18.90
2019-02-05T15:26:59.493Z,19.03
2019-02-05T15:29:48.294Z,17.48
2019-02-05T15:36:05.653Z,15.93
2019-02-05T15:38:54.438Z,16.30
2019-02-05T15:41:43.307Z,18.97
2019-02-05T15:44:33.834Z,36.00
2019-02-05T15:47:22.649Z,21.60
2019-02-05T15:50:32.361Z,23.43
2019-02-05T15:53:21.173Z,26.00
2019-02-05T15:56:29.226Z,25.57
2019-02-05T15:59:10.923Z,19.83
2019-02-05T16:02:06.359Z,18.87
2019-02-05T16:04:54.086Z,22.77
2019-02-05T16:07:42.871Z,25.97
2019-02-05T16:10:31.682Z,20.57
2019-02-05T16:13:22.193Z,18.97
2019-02-05T16:16:11.083Z,25.02
2019-02-05T16:19:01.587Z,18.77
2019-02-05T16:21:50.398Z,20.70
2019-02-05T16:24:39.194Z,23.00
2019-02-05T16:27:28.332Z,19.30
2019-02-05T16:30:38.035Z,20.67
2019-02-05T16:33:26.843Z,20.50
2019-02-05T16:36:15.642Z,20.57
2019-02-05T16:39:25.376Z,24.23
2019-02-05T16:42:14.162Z,23.17
2019-02-05T16:45:02.976Z,23.32
2019-02-05T16:47:53.484Z,31.20
2019-02-05T16:51:03.368Z,25.50
2019-02-05T16:53:52.232Z,26.30
2019-02-05T16:56:41.026Z,31.57
2019-02-05T16:59:22.343Z,24.45
2019-02-05T17:02:11.124Z,28.37
2019-02-05T17:05:01.658Z,23.03
2019-02-05T17:07:50.535Z,24.30
2019-02-05T17:10:39.342Z,28.87
2019-02-05T17:13:28.133Z,22.73
2019-02-05T17:16:16.942Z,30.67
2019-02-05T17:19:05.747Z,24.25
2019-02-05T17:21:54.565Z,30.60
2019-02-05T17:24:43.375Z,29.07
2019-02-05T17:27:32.438Z,27.47
2019-02-05T17:30:43.891Z,33.10
2019-02-05T17:33:32.709Z,31.93
2019-02-05T17:36:21.495Z,30.33
2019-02-05T17:39:31.199Z,28.23
2019-02-05T17:42:20.075Z,32.20
2019-02-05T17:45:29.779Z,32.57
2019-02-05T17:48:18.735Z,30.90
2019-02-05T17:51:07.555Z,29.70
2019-02-05T17:53:56.357Z,34.03
2019-02-05T17:56:46.882Z,32.27
2019-02-05T17:59:28.523Z,27.13
2019-02-05T18:02:17.339Z,29.50
2019-02-05T18:05:27.047Z,31.17
2019-02-05T18:08:17.581Z,28.83
2019-02-05T18:11:06.948Z,29.60
2019-02-05T18:13:55.751Z,31.90
2019-02-05T18:16:45.458Z,33.17
2019-02-05T18:19:35.068Z,30.48
2019-02-05T18:22:23.867Z,30.53
2019-02-05T18:25:33.614Z,38.70
2019-02-05T18:28:22.394Z,37.27
2019-02-05T18:31:11.401Z,35.27
2019-02-05T18:34:00.168Z,49.20
2019-02-05T18:36:48.966Z,38.23
2019-02-05T18:39:39.866Z,37.20
2019-02-05T18:42:28.281Z,29.47
2019-02-05T18:45:38.011Z,41.23
2019-02-05T18:48:28.522Z,38.57
2019-02-05T18:51:17.326Z,42.17
2019-02-05T18:54:06.189Z,33.30
2019-02-05T18:56:45.911Z,36.33
2019-02-05T18:59:34.709Z,40.70
2019-02-05T19:02:23.510Z,34.80
2019-02-05T19:05:13.088Z,34.00
2019-02-05T19:08:03.954Z,34.70
2019-02-05T19:10:52.748Z,40.03
2019-02-05T19:13:41.778Z,34.35
2019-02-05T19:16:30.614Z,35.93
2019-02-05T19:19:19.421Z,42.00
2019-02-05T19:22:08.205Z,32.87
2019-02-05T19:28:07.789Z,34.33
2019-02-05T19:31:05.403Z,26.37
2019-02-05T19:33:54.285Z,49.00
2019-02-05T19:36:43.072Z,56.93
2019-02-05T19:39:31.884Z,45.33
2019-02-05T19:42:20.693Z,49.13
2019-02-05T19:51:24.336Z,62.17
2019-02-05T19:54:13.145Z,47.37
2019-02-05T19:57:01.934Z,54.57
2019-02-05T19:59:43.566Z,40.40
2019-02-05T20:02:32.360Z,35.85
2019-02-05T20:05:21.352Z,39.30
2019-02-05T20:08:11.778Z,36.10
2019-02-05T20:11:00.624Z,47.70
2019-02-05T20:13:49.428Z,44.10
2019-02-05T20:16:38.238Z,40.77
2019-02-05T20:19:27.034Z,50.97
2019-02-05T20:22:15.843Z,49.47
2019-02-05T20:28:20.049Z,55.00
2019-02-05T20:31:08.912Z,72.97
2019-02-05T20:33:57.742Z,102.07
2019-02-05T20:36:46.560Z,127.50
2019-02-05T20:39:35.681Z,43.50
2019-02-05T20:42:24.566Z,38.37
2019-02-05T20:48:42.251Z,43.93
2019-02-05T20:51:31.056Z,46.40
2019-02-05T20:54:19.862Z,50.70
2019-02-05T20:57:01.423Z,49.65
2019-02-05T20:59:50.240Z,41.00
2019-02-05T21:02:39.037Z,43.93
2019-02-05T21:05:27.968Z,42.80
2019-02-05T21:08:18.476Z,39.23
2019-02-05T21:11:07.337Z,37.80
2019-02-05T21:13:56.146Z,52.33
2019-02-05T21:16:44.953Z,39.80
2019-02-05T21:19:33.755Z,44.83
2019-02-05T21:22:22.546Z,46.03
2019-02-05T21:25:32.393Z,38.17
2019-02-05T21:28:21.145Z,34.78
2019-02-05T21:31:09.953Z,39.80
2019-02-05T21:33:58.745Z,34.33
2019-02-05T21:36:47.562Z,26.07
2019-02-05T21:39:36.366Z,30.08
2019-02-05T21:42:25.162Z,30.20
2019-02-05T21:45:36.580Z,33.10
2019-02-05T21:48:25.391Z,33.30
2019-02-05T21:51:14.195Z,43.48
2019-02-05T21:54:02.990Z,32.47
2019-02-05T21:56:51.795Z,33.77
2019-02-05T21:59:40.628Z,38.53
2019-02-05T22:02:29.521Z,27.10
2019-02-05T22:05:18.322Z,25.70
2019-02-05T22:08:08.773Z,37.20
2019-02-05T22:10:57.664Z,32.80
2019-02-05T22:13:46.489Z,31.82
2019-02-05T22:16:35.359Z,30.70
2019-02-05T22:19:25.881Z,40.03
2019-02-05T22:22:14.689Z,32.67
2019-02-05T22:28:31.961Z,33.07
2019-02-05T22:31:20.912Z,32.40
2019-02-05T22:34:09.746Z,40.70
2019-02-05T22:36:58.529Z,32.33
2019-02-05T22:39:47.341Z,39.10
2019-02-05T22:42:29.042Z,37.27
2019-02-05T22:45:41.112Z,32.80
2019-02-05T22:48:29.583Z,34.03
2019-02-05T22:51:18.400Z,37.43
2019-02-05T22:53:59.885Z,32.50
2019-02-05T22:56:48.694Z,35.47
2019-02-05T22:59:39.227Z,33.07
2019-02-05T23:05:56.760Z,29.27
2019-02-05T23:08:45.563Z,32.03
2019-02-05T23:12:13.231Z,38.70
2019-02-05T23:15:23.328Z,38.15
2019-02-05T23:18:12.141Z,33.90
2019-02-05T23:21:00.950Z,31.90
2019-02-05T23:23:50.073Z,39.47
2019-02-05T23:26:40.586Z,29.77
2019-02-05T23:29:29.405Z,41.93
2019-02-05T23:32:19.941Z,43.10
2019-02-05T23:35:08.908Z,45.27
2019-02-05T23:37:57.721Z,40.97
2019-02-05T23:40:46.532Z,40.73
2019-02-05T23:43:35.323Z,54.70
2019-02-05T23:46:24.141Z,49.30
2019-02-05T23:49:12.935Z,55.37
2019-02-05T23:52:01.750Z,67.93
2019-02-05T23:54:43.359Z,76.80
2019-02-05T23:57:32.236Z,91.53
